Time;durP1;ratioP1;P1;durP2;ratioP2;P2;SDS_P1;SDS_P2;PMS_P1;PMS_P2;Temp;Humidity;BMP_temperature;BMP_pressure;BME280_temperature;BME280_humidity;BME280_pressure;Samples;Min_cycle;Max_cycle;Signal;HPM_P1;HPM_P2
2021/08/23 00:02:20;;;;;;;;;8.00;6.25;;;;;20.35;49.00;101796.03;5082962;27;46216;-49
2021/08/23 00:04:46;;;;;;;;;7.50;6.00;;;;;20.34;49.52;101796.06;5082799;28;45145;-46
2021/08/23 00:07:11;;;;;;;;;5.50;4.75;;;;;20.33;49.73;101797.03;5082957;28;45296;-45
2021/08/23 00:09:37;;;;;;;;;6.75;6.75;;;;;20.30;49.17;101792.63;5081379;28;45598;-49
2021/08/23 00:12:02;;;;;;;;;9.75;8.00;;;;;20.30;49.63;101798.88;5082525;28;45976;-48
2021/08/23 00:14:28;;;;;;;;;5.75;5.25;;;;;20.33;49.23;101803.22;5082374;28;45353;-45
2021/08/23 00:16:53;;;;;;;;;8.50;7.75;;;;;20.33;49.08;101792.53;5082945;28;45317;-49
2021/08/23 00:19:19;;;;;;;;;5.75;5.00;;;;;20.34;49.25;101796.06;5082483;28;45286;-48
2021/08/23 00:21:45;;;;;;;;;7.75;6.00;;;;;20.38;49.14;101797.72;5081178;27;48506;-46
2021/08/23 00:24:21;;;;;;;;;9.00;7.25;;;;;20.38;49.41;101793.22;5080925;28;45464;-45
2021/08/23 00:26:55;;;;;;;;;5.50;5.50;;;;;20.39;49.68;101794.09;5082441;28;45320;-48
2021/08/23 00:29:22;;;;;;;;;8.50;6.75;;;;;20.38;49.32;101795.91;5082289;28;45259;-45
2021/08/23 00:31:48;;;;;;;;;7.50;7.25;;;;;20.39;49.42;101799.44;5082199;27;45301;-45
2021/08/23 00:34:13;;;;;;;;;6.25;5.25;;;;;20.38;49.95;101795.91;5082275;28;45244;-46
2021/08/23 00:36:39;;;;;;;;;5.00;5.00;;;;;20.40;49.65;101796.72;5082481;28;45423;-47
2021/08/23 00:39:09;;;;;;;;;6.25;6.25;;;;;20.41;49.86;101800.25;5082347;28;45378;-48
2021/08/23 00:41:36;;;;;;;;;7.25;7.25;;;;;20.42;49.54;101799.31;5081919;28;46221;-48
2021/08/23 00:44:03;;;;;;;;;7.00;6.75;;;;;20.43;49.56;101788.56;5081987;28;45373;-49
2021/08/23 00:46:28;;;;;;;;;7.00;5.25;;;;;20.46;49.71;101795.59;5080887;28;45255;-47
2021/08/23 00:48:54;;;;;;;;;7.00;5.50;;;;;20.46;49.38;101791.16;5082298;28;45226;-45
2021/08/23 00:51:20;;;;;;;;;7.00;5.75;;;;;20.50;49.42;101783.00;5080783;28;45339;-47
2021/08/23 00:53:47;;;;;;;;;7.00;5.75;;;;;20.52;49.29;101782.00;5082209;28;45294;-49
2021/08/23 00:56:12;;;;;;;;;6.00;5.00;;;;;20.54;49.29;101790.84;5082052;28;45514;-49
2021/08/23 00:58:39;;;;;;;;;7.75;6.25;;;;;20.55;49.51;101789.91;5081779;28;45309;-48
2021/08/23 01:01:22;;;;;;;;;6.75;6.50;;;;;20.57;49.45;101781.84;5081712;27;45493;-47
2021/08/23 01:03:57;;;;;;;;;6.25;6.25;;;;;20.57;49.38;101777.34;5081883;28;45217;-45
2021/08/23 01:06:24;;;;;;;;;4.25;4.00;;;;;20.61;49.81;101783.44;5081813;28;45284;-48
2021/08/23 01:08:53;;;;;;;;;7.00;6.00;;;;;20.60;49.61;101779.03;5081867;28;45260;-47
2021/08/23 01:11:20;;;;;;;;;4.75;4.75;;;;;20.61;50.02;101780.78;5081494;28;45304;-48
2021/08/23 01:13:48;;;;;;;;;7.50;4.75;;;;;20.62;49.36;101777.19;5080013;28;45286;-49
2021/08/23 01:16:14;;;;;;;;;7.00;6.00;;;;;20.63;50.03;101778.91;5081732;28;45359;-48
2021/08/23 01:18:42;;;;;;;;;6.00;4.00;;;;;20.63;49.56;101777.09;5081647;28;45288;-47
2021/08/23 01:21:09;;;;;;;;;6.00;5.50;;;;;20.62;49.74;101780.69;5081470;27;46149;-48
2021/08/23 01:23:37;;;;;;;;;5.00;4.75;;;;;20.63;49.50;101782.44;5081456;28;45233;-46
2021/08/23 01:26:04;;;;;;;;;4.75;4.50;;;;;20.65;49.50;101790.38;5080452;28;45354;-48
2021/08/23 01:28:51;;;;;;;;;5.00;5.00;;;;;20.65;50.08;101790.38;5081210;28;45484;-45
2021/08/23 01:31:25;;;;;;;;;5.50;4.50;;;;;20.61;49.94;101781.63;5081291;27;46216;-48
2021/08/23 01:33:52;;;;;;;;;7.00;5.25;;;;;20.63;49.54;101785.13;5080038;28;45322;-47
2021/08/23 01:36:17;;;;;;;;;6.50;5.00;;;;;20.61;50.21;101784.31;5081024;28;45386;-47
2021/08/23 01:38:43;;;;;;;;;6.50;5.50;;;;;20.60;50.38;101784.38;5081229;28;45579;-46
2021/08/23 01:41:09;;;;;;;;;4.50;4.00;;;;;20.59;50.32;101779.94;5081297;27;45369;-46
2021/08/23 01:43:36;;;;;;;;;5.00;5.00;;;;;20.57;50.34;101785.34;5080943;28;45313;-47
2021/08/23 01:46:02;;;;;;;;;6.25;6.00;;;;;20.58;50.40;101791.59;5080144;28;45380;-48
2021/08/23 01:48:27;;;;;;;;;5.75;4.50;;;;;20.55;50.18;101797.03;5081107;28;45320;-45
2021/08/23 01:50:53;;;;;;;;;8.25;5.00;;;;;20.55;50.06;101797.03;5081015;28;47138;-46
2021/08/23 01:53:19;;;;;;;;;3.75;3.75;;;;;20.55;50.53;101792.59;5080957;28;45345;-47
2021/08/23 01:55:45;;;;;;;;;4.00;4.00;;;;;20.54;50.18;101796.19;5081565;28;45360;-46
2021/08/23 01:58:11;;;;;;;;;5.25;3.50;;;;;20.53;50.78;101790.91;5080540;28;45536;-48
2021/08/23 02:00:36;;;;;;;;;8.00;5.50;;;;;20.51;50.39;101784.75;5080849;27;45471;-46
2021/08/23 02:03:02;;;;;;;;;7.00;5.00;;;;;20.48;51.00;101796.41;5080879;28;45232;-50
2021/08/23 02:05:28;;;;;;;;;6.50;5.00;;;;;20.45;51.09;101794.75;5081171;28;45306;-48
2021/08/23 02:07:54;;;;;;;;;5.50;5.50;;;;;20.41;51.19;101789.56;5080860;28;45441;-46
2021/08/23 02:10:19;;;;;;;;;7.00;6.00;;;;;20.40;50.69;101794.06;5080823;27;46265;-46
2021/08/23 02:12:45;;;;;;;;;9.00;6.75;;;;;20.38;50.91;101795.91;5080337;28;45514;-47
2021/08/23 02:15:10;;;;;;;;;6.00;5.00;;;;;20.29;50.69;101781.09;5080974;28;45297;-46
2021/08/23 02:17:35;;;;;;;;;6.50;6.50;;;;;20.37;51.12;101791.47;5080677;28;45449;-46
2021/08/23 02:20:01;;;;;;;;;7.00;7.00;;;;;20.35;51.04;101788.03;5080606;27;48154;-48
2021/08/23 02:22:26;;;;;;;;;6.50;6.00;;;;;20.36;51.17;101780.88;5079462;28;45271;-47
2021/08/23 02:24:52;;;;;;;;;6.00;5.00;;;;;20.35;51.18;101789.81;5080770;28;45242;-46
2021/08/23 02:27:17;;;;;;;;;7.00;5.25;;;;;20.35;51.10;101789.81;5080213;28;45556;-46
2021/08/23 02:29:42;;;;;;;;;5.75;4.75;;;;;20.35;51.34;101788.03;5080501;28;46247;-46
2021/08/23 02:32:09;;;;;;;;;7.00;5.75;;;;;20.36;51.28;101792.41;5079205;28;45413;-46
2021/08/23 02:34:34;;;;;;;;;9.50;5.25;;;;;20.35;50.83;101787.13;5080674;28;45377;-48
2021/08/23 02:36:59;;;;;;;;;8.00;6.00;;;;;20.37;51.32;101790.63;5080418;28;45440;-50
2021/08/23 02:39:25;;;;;;;;;5.25;5.25;;;;;20.36;50.92;101789.75;5080524;28;46264;-48
2021/08/23 02:41:53;;;;;;;;;5.25;5.25;;;;;20.38;51.23;101785.22;5078871;28;45334;-48
2021/08/23 02:44:20;;;;;;;;;8.25;6.50;;;;;20.38;51.41;101790.56;5080313;28;45234;-45
2021/08/23 02:46:46;;;;;;;;;5.25;4.50;;;;;20.39;51.16;101792.31;5079411;28;45539;-46
2021/08/23 02:49:11;;;;;;;;;6.50;5.75;;;;;20.39;50.76;101789.63;5080233;28;45629;-48
2021/08/23 02:51:36;;;;;;;;;6.00;6.00;;;;;20.39;51.34;101783.41;5080074;27;48929;-49
2021/08/23 02:54:02;;;;;;;;;5.50;5.25;;;;;20.41;51.23;101789.56;5080414;28;45303;-49
2021/08/23 02:56:27;;;;;;;;;8.75;5.75;;;;;20.41;51.05;101784.22;5080441;28;45429;-49
2021/08/23 02:58:52;;;;;;;;;7.25;6.00;;;;;20.44;51.31;101781.47;5079857;28;46226;-46
2021/08/23 03:01:18;;;;;;;;;3.50;3.50;;;;;20.43;51.21;101783.25;5080092;28;45243;-46
2021/08/23 03:03:43;;;;;;;;;6.00;5.25;;;;;20.42;50.93;101785.97;5080372;28;45319;-49
2021/08/23 03:06:09;;;;;;;;;5.25;4.75;;;;;20.42;51.33;101780.63;5080062;28;45267;-45
2021/08/23 03:08:34;;;;;;;;;4.25;4.25;;;;;20.41;51.07;101774.41;5080190;28;46012;-51
2021/08/23 03:11:07;;;;;;;;;6.50;5.25;;;;;20.41;51.54;101779.75;5080096;28;45302;-56
2021/08/23 03:13:33;;;;;;;;;5.75;5.75;;;;;20.40;51.41;101777.16;5079915;28;45461;-48
2021/08/23 03:15:59;;;;;;;;;6.50;6.50;;;;;20.39;51.58;101783.41;5079898;28;45386;-47
2021/08/23 03:18:24;;;;;;;;;5.50;5.00;;;;;20.39;51.39;101781.63;5079930;28;45394;-48
2021/08/23 03:20:49;;;;;;;;;7.00;7.00;;;;;20.39;51.54;101786.06;5079561;28;55270;-45
2021/08/23 03:23:14;;;;;;;;;4.75;4.75;;;;;20.37;51.12;101780.81;5079891;28;45319;-48
2021/08/23 03:25:40;;;;;;;;;6.25;5.25;;;;;20.36;51.61;101787.06;5078579;28;45429;-46
2021/08/23 03:28:05;;;;;;;;;7.00;4.75;;;;;20.35;51.58;101784.47;5079495;28;46088;-47
2021/08/23 03:30:31;;;;;;;;;5.50;5.50;;;;;20.35;51.46;101787.13;5079652;28;45398;-45
2021/08/23 03:32:56;;;;;;;;;6.50;5.75;;;;;20.33;51.37;101779.19;5079985;28;45746;-45
2021/08/23 03:35:21;;;;;;;;;6.00;4.25;;;;;20.32;51.68;101790.78;5079629;28;45295;-46
2021/08/23 03:37:47;;;;;;;;;9.50;6.25;;;;;20.32;51.75;101785.47;5079705;28;45315;-48
2021/08/23 03:40:12;;;;;;;;;6.00;5.00;;;;;20.30;51.29;101788.19;5079608;28;45271;-49
2021/08/23 03:42:38;;;;;;;;;5.75;4.25;;;;;20.28;51.41;101781.19;5078172;28;45392;-49
2021/08/23 03:45:04;;;;;;;;;7.50;6.25;;;;;20.28;51.94;101787.38;5079678;28;45234;-45
2021/08/23 03:47:29;;;;;;;;;6.25;5.00;;;;;20.30;51.71;101787.31;5079555;28;45350;-45
2021/08/23 03:49:54;;;;;;;;;7.00;7.00;;;;;20.25;51.67;101774.16;5079291;27;45302;-46
2021/08/23 03:52:20;;;;;;;;;9.00;7.50;;;;;20.27;52.10;101779.44;5079826;28;45277;-48
2021/08/23 03:54:45;;;;;;;;;8.50;7.50;;;;;20.28;52.22;101781.19;5077992;28;45457;-45
2021/08/23 03:57:10;;;;;;;;;11.00;8.75;;;;;20.26;52.08;101777.69;5079084;28;45284;-47
2021/08/23 03:59:36;;;;;;;;;7.25;5.75;;;;;20.26;51.85;101777.69;5081711;28;45307;-47
2021/08/23 04:02:01;;;;;;;;;8.25;7.00;;;;;20.23;51.65;101777.81;5082914;27;45224;-45
2021/08/23 04:04:27;;;;;;;;;8.50;8.25;;;;;20.24;51.92;101774.22;5081592;28;46231;-45
2021/08/23 04:06:52;;;;;;;;;10.00;7.25;;;;;20.24;51.93;101777.75;5082890;28;45987;-50
2021/08/23 04:09:17;;;;;;;;;7.50;7.00;;;;;20.25;52.27;101778.59;5082802;28;45148;-47
2021/08/23 04:11:43;;;;;;;;;10.75;7.25;;;;;20.21;52.21;101775.19;5082800;27;45283;-46
2021/08/23 04:14:08;;;;;;;;;8.50;7.75;;;;;20.23;52.34;101775.16;5082366;28;45556;-46
2021/08/23 04:16:33;;;;;;;;;9.50;7.25;;;;;20.23;52.41;101778.69;5082896;28;45970;-45
2021/08/23 04:18:59;;;;;;;;;7.75;7.75;;;;;20.18;52.04;101764.63;5081244;28;45554;-49
2021/08/23 04:21:24;;;;;;;;;9.00;6.75;;;;;20.23;51.86;101777.81;5082724;27;45222;-46
2021/08/23 04:23:49;;;;;;;;;10.75;8.00;;;;;20.22;52.06;101784.94;5082430;28;45240;-46
2021/08/23 04:26:14;;;;;;;;;6.75;6.00;;;;;20.22;52.34;101781.41;5082515;28;45426;-51
2021/08/23 04:28:40;;;;;;;;;8.00;6.50;;;;;20.21;52.58;101783.19;5082213;28;45536;-47
2021/08/23 04:31:05;;;;;;;;;9.00;7.25;;;;;20.21;52.67;101782.34;5082487;27;45141;-47
2021/08/23 04:33:30;;;;;;;;;6.00;6.00;;;;;20.20;52.29;101784.16;5082379;28;45297;-46
2021/08/23 04:35:56;;;;;;;;;8.75;7.25;;;;;20.19;52.43;101785.06;5082410;28;46262;-50
2021/08/23 04:38:21;;;;;;;;;7.50;7.00;;;;;20.18;52.53;101782.47;5082366;28;45324;-46
2021/08/23 04:40:47;;;;;;;;;11.50;8.50;;;;;20.18;52.54;101787.81;5082491;28;45337;-46
2021/08/23 04:43:12;;;;;;;;;9.50;8.50;;;;;20.18;52.44;101794.00;5081830;28;45295;-49
2021/08/23 04:45:37;;;;;;;;;10.25;8.00;;;;;20.17;52.48;101796.72;5082173;28;45157;-45
2021/08/23 04:48:03;;;;;;;;;7.25;7.25;;;;;20.17;52.91;101791.38;5082080;28;45285;-49
2021/08/23 04:50:28;;;;;;;;;8.75;6.50;;;;;20.16;53.11;101793.16;5082348;27;45319;-48
2021/08/23 04:52:53;;;;;;;;;7.00;7.00;;;;;20.16;52.80;101800.31;5082090;28;45483;-46
2021/08/23 04:55:19;;;;;;;;;7.00;7.00;;;;;20.14;52.65;101798.56;5082140;28;45211;-46
2021/08/23 04:57:44;;;;;;;;;8.25;7.25;;;;;20.13;53.07;101798.63;5081766;28;45158;-48
2021/08/23 05:00:11;;;;;;;;;8.50;8.25;;;;;20.14;52.70;101798.56;5081879;28;45215;-48
2021/08/23 05:02:37;;;;;;;;;10.75;8.00;;;;;20.14;53.28;101805.72;5081897;27;45182;-46
2021/08/23 05:05:04;;;;;;;;;9.00;8.25;;;;;20.13;52.66;101807.50;5081776;28;46180;-47
2021/08/23 05:07:29;;;;;;;;;8.25;8.00;;;;;20.11;52.54;101804.03;5081713;28;45327;-47
2021/08/23 05:09:54;;;;;;;;;11.50;9.25;;;;;20.12;53.36;101805.78;5081023;28;45273;-46
2021/08/23 05:12:20;;;;;;;;;9.25;8.00;;;;;20.13;52.93;101819.97;5081334;28;45618;-49
2021/08/23 05:14:45;;;;;;;;;8.00;8.00;;;;;20.13;53.45;101814.66;5080334;28;46079;-50
2021/08/23 05:17:10;;;;;;;;;9.00;7.75;;;;;20.13;52.99;101822.66;5081623;28;45256;-46
2021/08/23 05:19:36;;;;;;;;;11.00;9.50;;;;;20.13;53.53;101823.50;5081740;28;45303;-47
2021/08/23 05:22:01;;;;;;;;;12.25;9.75;;;;;20.13;53.43;101820.84;5081432;28;45285;-45
2021/08/23 05:24:26;;;;;;;;;9.25;9.25;;;;;20.11;53.02;101825.38;5081395;28;46879;-45
2021/08/23 05:26:52;;;;;;;;;11.00;11.00;;;;;20.14;53.14;101829.72;5081502;28;45318;-48
2021/08/23 05:29:17;;;;;;;;;8.75;8.75;;;;;20.14;53.57;101822.59;5080631;28;45233;-46
2021/08/23 05:31:42;;;;;;;;;12.00;9.75;;;;;20.14;53.13;101830.59;5081396;28;45350;-46
2021/08/23 05:34:07;;;;;;;;;8.75;8.50;;;;;20.14;53.09;101830.59;5081462;28;46246;-45
2021/08/23 05:36:33;;;;;;;;;11.00;10.00;;;;;20.13;53.63;101828.84;5081362;28;45180;-48
2021/08/23 05:38:58;;;;;;;;;10.50;10.50;;;;;20.14;53.58;101830.59;5080059;28;45228;-49
2021/08/23 05:41:24;;;;;;;;;11.50;11.50;;;;;20.11;53.07;101836.06;5081385;28;45370;-45
2021/08/23 05:43:50;;;;;;;;;11.50;10.50;;;;;20.14;53.65;101835.06;5080889;28;46260;-48
2021/08/23 05:46:22;;;;;;;;;11.00;11.00;;;;;20.14;53.01;101835.06;5081215;28;45257;-48
2021/08/23 05:48:48;;;;;;;;;14.25;11.25;;;;;20.14;53.17;101833.25;5081478;28;45315;-44
2021/08/23 05:51:16;;;;;;;;;13.00;12.00;;;;;20.13;53.17;101826.19;5081052;27;45225;-46
2021/08/23 05:53:43;;;;;;;;;14.75;12.00;;;;;20.16;53.76;101841.19;5079725;28;46068;-45
2021/08/23 05:56:09;;;;;;;;;14.25;12.00;;;;;20.15;53.03;101842.16;5080917;28;45331;-47
2021/08/23 05:58:34;;;;;;;;;11.25;10.75;;;;;20.18;53.10;101842.03;5080779;28;45393;-45
2021/08/23 06:01:00;;;;;;;;;16.00;12.50;;;;;20.17;53.54;101842.09;5080705;28;45391;-47
2021/08/23 06:03:25;;;;;;;;;12.00;12.00;;;;;20.18;53.80;101843.84;5079584;28;46198;-47
2021/08/23 06:05:50;;;;;;;;;15.75;11.25;;;;;20.14;53.75;101843.94;5080804;28;45267;-45
2021/08/23 06:08:16;;;;;;;;;13.50;12.50;;;;;20.12;53.84;101853.81;5081197;28;45282;-45
2021/08/23 06:10:41;;;;;;;;;19.00;15.75;;;;;20.11;53.37;101859.19;5080911;28;45255;-47
2021/08/23 06:13:07;;;;;;;;;14.25;14.25;;;;;20.08;53.96;101856.63;5080452;28;46255;-46
2021/08/23 06:15:32;;;;;;;;;16.50;13.50;;;;;20.08;53.92;101854.84;5080531;28;45244;-45
2021/08/23 06:17:58;;;;;;;;;17.50;15.00;;;;;20.06;53.83;101856.72;5080851;28;45926;-46
2021/08/23 06:20:23;;;;;;;;;15.25;14.75;;;;;20.06;54.14;101864.72;5080483;27;45394;-46
2021/08/23 06:22:50;;;;;;;;;17.75;16.50;;;;;20.06;53.96;101863.81;5079229;28;46176;-44
2021/08/23 06:25:15;;;;;;;;;18.00;14.25;;;;;20.06;53.84;101867.38;5080431;28;45230;-43
2021/08/23 06:27:41;;;;;;;;;15.25;14.75;;;;;20.06;53.66;101867.38;5080175;28;45331;-45
2021/08/23 06:30:08;;;;;;;;;16.50;15.50;;;;;20.07;54.02;101865.56;5080566;27;45211;-45
2021/08/23 06:32:33;;;;;;;;;14.75;12.75;;;;;20.07;53.48;101869.09;5080331;28;47004;-46
2021/08/23 06:34:59;;;;;;;;;18.00;16.50;;;;;20.06;53.81;101858.47;5080281;28;45244;-45
2021/08/23 06:37:24;;;;;;;;;14.75;14.75;;;;;20.09;53.84;101864.59;5080430;28;45327;-45
2021/08/23 06:39:49;;;;;;;;;19.00;15.00;;;;;20.11;54.14;101865.41;5080296;27;45321;-43
2021/08/23 06:42:14;;;;;;;;;15.50;15.50;;;;;20.11;53.91;101862.75;5079409;28;48971;-46
2021/08/23 06:44:40;;;;;;;;;26.00;21.75;;;;;20.12;53.76;101858.25;5080411;28;45264;-43
2021/08/23 06:47:06;;;;;;;;;20.75;17.25;;;;;20.16;54.33;101864.34;5080236;28;45323;-44
2021/08/23 06:49:31;;;;;;;;;18.25;18.25;;;;;20.17;53.71;101866.09;5080278;28;45560;-45
2021/08/23 06:51:56;;;;;;;;;19.50;18.75;;;;;20.21;54.31;101868.59;5080002;27;46093;-45
2021/08/23 06:54:22;;;;;;;;;19.50;18.25;;;;;20.21;53.87;101867.72;5080092;28;45248;-47
2021/08/23 06:56:48;;;;;;;;;18.00;18.00;;;;;20.22;54.14;101865.00;5080029;28;45482;-47
2021/08/23 06:59:13;;;;;;;;;17.75;14.75;;;;;20.28;54.04;101867.44;5080177;28;45439;-45
2021/08/23 07:01:38;;;;;;;;;22.00;18.00;;;;;20.31;54.22;101871.78;5079661;27;46005;-44
2021/08/23 07:04:04;;;;;;;;;20.75;17.75;;;;;20.34;54.17;101869.03;5080244;28;45219;-46
2021/08/23 07:06:30;;;;;;;;;13.50;11.25;;;;;20.38;54.11;101870.63;5080114;28;45294;-45
2021/08/23 07:08:55;;;;;;;;;21.00;18.50;;;;;20.38;54.00;101865.31;5080012;28;45219;-43
2021/08/23 07:11:20;;;;;;;;;23.75;17.75;;;;;20.43;54.24;101874.00;5079876;28;46957;-44
2021/08/23 07:13:46;;;;;;;;;19.50;17.75;;;;;20.48;54.19;101875.63;5079374;28;45208;-46
2021/08/23 07:16:11;;;;;;;;;16.50;16.00;;;;;20.50;54.24;101869.28;5079900;28;45215;-45
2021/08/23 07:18:37;;;;;;;;;15.50;15.50;;;;;20.54;53.55;101875.38;5078433;28;45187;-49
2021/08/23 07:21:03;;;;;;;;;13.50;12.50;;;;;20.56;54.05;101862.84;5079379;28;46284;-46
2021/08/23 07:23:28;;;;;;;;;18.25;16.50;;;;;20.60;53.59;101875.16;5079562;28;45497;-51
2021/08/23 07:25:55;;;;;;;;;15.50;12.75;;;;;20.63;54.06;101870.56;5079714;28;45301;-46
2021/08/23 07:28:20;;;;;;;;;15.00;14.50;;;;;20.67;53.69;101876.66;5079151;28;45438;-46
2021/08/23 07:30:46;;;;;;;;;13.00;13.00;;;;;20.69;53.75;101872.16;5079203;28;46164;-47
2021/08/23 07:33:11;;;;;;;;;17.50;15.00;;;;;20.73;53.44;101873.78;5079836;28;45339;-47
2021/08/23 07:35:36;;;;;;;;;12.75;12.25;;;;;20.76;53.85;101879.00;5083248;28;45249;-46
2021/08/23 07:38:02;;;;;;;;;12.75;11.00;;;;;20.78;53.80;101868.28;5083179;28;45238;-45
2021/08/23 07:40:28;;;;;;;;;12.25;12.25;;;;;20.83;53.83;101876.09;5082778;27;46990;-48
2021/08/23 07:42:54;;;;;;;;;12.00;10.00;;;;;20.84;53.99;101878.72;5082649;28;45278;-46
2021/08/23 07:45:20;;;;;;;;;10.25;10.25;;;;;20.87;53.46;101875.91;5082996;28;45512;-46
2021/08/23 07:47:46;;;;;;;;;13.00;11.75;;;;;20.89;53.06;101873.19;5082844;28;45406;-46
2021/08/23 07:50:13;;;;;;;;;12.25;11.00;;;;;20.92;53.56;101875.75;5082641;28;45963;-46
2021/08/23 07:52:39;;;;;;;;;16.25;15.00;;;;;20.94;53.55;101871.19;5082946;28;45268;-48
2021/08/23 07:55:06;;;;;;;;;12.50;12.50;;;;;20.98;53.62;101880.84;5082665;28;45338;-45
2021/08/23 07:57:31;;;;;;;;;15.75;13.50;;;;;21.02;53.09;101876.22;5082588;28;45548;-48
2021/08/23 07:59:57;;;;;;;;;13.00;9.75;;;;;21.02;53.62;101871.75;5082341;27;45943;-46
2021/08/23 08:02:22;;;;;;;;;11.75;10.75;;;;;21.09;53.52;101870.59;5083126;27;45321;-48
2021/08/23 08:04:49;;;;;;;;;12.00;12.00;;;;;21.11;53.63;101867.84;5082867;28;45343;-47
2021/08/23 08:07:15;;;;;;;;;11.00;10.00;;;;;21.15;53.38;101864.13;5082923;28;45351;-48
2021/08/23 08:09:41;;;;;;;;;10.25;9.75;;;;;21.18;53.57;101865.78;5082294;28;45247;-47
2021/08/23 08:12:06;;;;;;;;;13.00;11.00;;;;;21.24;53.11;101869.09;5082220;27;46875;-47
2021/08/23 08:14:32;;;;;;;;;10.50;10.50;;;;;21.25;53.24;101862.78;5081193;28;45473;-46
2021/08/23 08:16:57;;;;;;;;;10.25;10.25;;;;;21.33;52.99;101872.31;5081550;28;45331;-46
2021/08/23 08:19:23;;;;;;;;;7.25;6.00;;;;;21.37;52.88;101874.78;5082377;28;45878;-49
2021/08/23 08:21:49;;;;;;;;;12.00;10.50;;;;;21.39;52.94;101875.59;5082494;27;45349;-49
2021/08/23 08:24:14;;;;;;;;;12.00;12.00;;;;;21.46;52.77;101878.88;5082356;28;45433;-46
2021/08/23 08:26:39;;;;;;;;;13.50;10.25;;;;;21.50;53.09;101876.97;5082601;28;45556;-47
2021/08/23 08:29:05;;;;;;;;;15.75;12.75;;;;;21.52;52.95;101870.59;5081950;28;46565;-47
2021/08/23 08:31:30;;;;;;;;;17.00;15.25;;;;;21.59;52.87;101876.59;5081024;27;45385;-48
2021/08/23 08:33:56;;;;;;;;;14.75;12.50;;;;;21.65;52.59;101875.47;5082229;28;45358;-48
2021/08/23 08:36:21;;;;;;;;;17.75;14.50;;;;;21.67;52.72;101879.81;5082494;28;45619;-49
2021/08/23 08:38:48;;;;;;;;;13.50;10.00;;;;;21.70;52.94;101868.97;5082125;28;46902;-46
2021/08/23 08:41:14;;;;;;;;;11.00;11.00;;;;;21.78;52.80;101865.09;5082192;27;45232;-47
2021/08/23 08:43:39;;;;;;;;;15.00;12.00;;;;;21.84;52.68;101863.00;5080582;28;45282;-50
2021/08/23 08:46:05;;;;;;;;;14.50;14.25;;;;;21.88;52.92;101861.06;5081083;28;45158;-50
2021/08/23 08:48:31;;;;;;;;;13.25;12.00;;;;;21.92;52.85;101866.22;5081913;28;46208;-49
2021/08/23 08:50:57;;;;;;;;;15.25;12.50;;;;;21.95;52.81;101857.19;5082112;27;45409;-50
2021/08/23 08:53:22;;;;;;;;;9.75;9.75;;;;;22.02;52.54;101865.81;5081944;28;45267;-46
2021/08/23 08:55:48;;;;;;;;;13.50;13.25;;;;;22.08;52.24;101862.88;5080751;28;45509;-48
2021/08/23 08:58:13;;;;;;;;;11.75;11.75;;;;;22.15;52.34;101863.44;5081520;28;46468;-48
2021/08/23 09:00:40;;;;;;;;;15.00;15.00;;;;;22.21;52.36;101869.41;5081878;28;45293;-51
2021/08/23 09:03:07;;;;;;;;;14.00;13.25;;;;;22.28;52.22;101866.47;5080337;28;45564;-48
2021/08/23 09:05:43;;;;;;;;;10.75;9.25;;;;;22.36;52.57;101870.53;5081873;28;45288;-50
2021/08/23 09:08:09;;;;;;;;;11.75;11.75;;;;;22.44;52.28;101875.53;5081610;28;47161;-49
2021/08/23 09:10:40;;;;;;;;;10.50;10.25;;;;;22.50;52.07;101879.72;5081744;27;45223;-47
2021/08/23 09:13:10;;;;;;;;;15.25;13.25;;;;;22.54;52.37;101871.50;5081629;28;45393;-50
2021/08/23 09:15:36;;;;;;;;;10.00;8.75;;;;;22.61;51.90;101881.91;5081459;28;45160;-47
2021/08/23 09:18:05;;;;;;;;;12.25;12.25;;;;;22.63;51.97;101875.53;5081499;28;47083;-49
2021/08/23 09:20:31;;;;;;;;;13.25;11.25;;;;;22.71;51.88;101886.75;5081344;28;45622;-47
2021/08/23 09:23:14;;;;;;;;;12.75;11.00;;;;;22.73;51.68;101876.00;5081527;28;45290;-51
2021/08/23 09:25:41;;;;;;;;;13.25;12.75;;;;;22.77;51.67;101882.06;5081505;28;45467;-49
2021/08/23 09:28:08;;;;;;;;;10.75;9.75;;;;;22.77;51.52;101882.06;5080953;28;46051;-48
2021/08/23 09:30:35;;;;;;;;;13.00;11.50;;;;;22.78;51.62;101890.03;5081398;27;45335;-51
2021/08/23 09:33:02;;;;;;;;;11.75;10.00;;;;;22.78;51.88;101884.66;5081553;28;45215;-50
2021/08/23 09:35:36;;;;;;;;;11.75;9.00;;;;;22.77;51.42;101884.75;5079867;28;45998;-48
2021/08/23 09:38:12;;;;;;;;;12.00;10.75;;;;;22.80;51.77;101884.59;5081157;28;46199;-48
2021/08/23 09:40:38;;;;;;;;;10.00;9.75;;;;;22.81;51.52;101879.16;5081160;27;45236;-48
2021/08/23 09:43:13;;;;;;;;;12.00;9.75;;;;;22.81;51.60;101887.19;5080952;28;45385;-48
2021/08/23 09:45:49;;;;;;;;;9.25;9.25;;;;;22.83;51.65;101881.75;5081225;28;45272;-50
2021/08/23 09:48:15;;;;;;;;;10.25;10.25;;;;;22.84;51.57;101888.84;5080943;28;46866;-48
2021/08/23 09:50:44;;;;;;;;;10.00;9.75;;;;;22.85;51.46;101885.25;5081178;27;45334;-47
2021/08/23 09:53:12;;;;;;;;;11.25;9.50;;;;;22.87;51.53;101886.03;5081159;28;45501;-46
2021/08/23 09:55:43;;;;;;;;;11.50;10.00;;;;;22.88;51.27;101888.63;5081155;28;45313;-49
2021/08/23 09:58:10;;;;;;;;;9.25;9.00;;;;;22.87;51.61;101891.41;5080145;28;46297;-46
2021/08/23 10:00:39;;;;;;;;;9.50;7.50;;;;;22.91;51.31;101886.78;5080750;27;45390;-47
2021/08/23 10:03:14;;;;;;;;;10.00;9.50;;;;;22.91;51.12;101892.97;5079638;28;45339;-45
2021/08/23 10:05:44;;;;;;;;;9.50;8.50;;;;;22.91;51.13;101895.66;5080844;28;45354;-49
2021/08/23 10:08:15;;;;;;;;;10.50;10.50;;;;;22.89;51.33;101884.13;5080714;28;46038;-48
2021/08/23 10:10:42;;;;;;;;;9.00;8.00;;;;;22.90;51.45;101888.56;5080716;27;45330;-47
2021/08/23 10:13:08;;;;;;;;;7.50;7.50;;;;;22.93;51.21;101887.53;5080603;28;46496;-48
2021/08/23 10:15:33;;;;;;;;;11.00;11.00;;;;;22.92;51.40;101897.41;5080613;28;45222;-48
2021/08/23 10:18:01;;;;;;;;;10.00;8.00;;;;;22.93;51.06;101887.53;5080596;28;45215;-48
2021/08/23 10:20:26;;;;;;;;;9.50;8.50;;;;;22.94;51.29;101887.47;5080580;27;45290;-48
2021/08/23 10:22:53;;;;;;;;;11.00;8.75;;;;;22.94;50.89;101890.13;5079459;28;45614;-46
2021/08/23 10:25:19;;;;;;;;;6.75;6.75;;;;;22.94;51.06;101894.66;5080855;28;45472;-50
2021/08/23 10:27:44;;;;;;;;;7.75;7.75;;;;;22.92;50.86;101889.38;5080215;28;46077;-49
2021/08/23 10:30:22;;;;;;;;;9.00;9.00;;;;;22.89;51.08;101887.69;5080440;27;45383;-48
2021/08/23 10:32:47;;;;;;;;;11.25;9.00;;;;;22.89;51.01;101882.34;5080794;28;45365;-48
2021/08/23 10:35:17;;;;;;;;;8.00;8.00;;;;;22.89;50.76;101884.13;5078888;28;45248;-47
2021/08/23 10:37:44;;;;;;;;;10.00;10.00;;;;;22.89;50.91;101884.13;5080515;28;45413;-46
2021/08/23 10:40:10;;;;;;;;;6.25;6.25;;;;;22.91;51.29;101886.78;5078869;28;45279;-47
2021/08/23 10:42:40;;;;;;;;;10.75;8.00;;;;;22.90;51.05;101883.19;5079997;28;45367;-46
2021/08/23 10:45:17;;;;;;;;;8.50;8.00;;;;;22.91;50.99;101887.63;5080195;28;45252;-46
2021/08/23 10:47:46;;;;;;;;;9.50;8.75;;;;;22.91;50.99;101884.09;5080334;28;46285;-49
2021/08/23 10:50:26;;;;;;;;;8.50;8.00;;;;;22.90;51.47;101885.88;5080016;28;45351;-47
2021/08/23 10:52:53;;;;;;;;;8.00;6.00;;;;;22.90;50.93;101883.19;5080291;28;45243;-47
2021/08/23 10:55:24;;;;;;;;;8.00;6.25;;;;;22.88;51.30;101891.31;5080094;28;45469;-46
2021/08/23 10:58:04;;;;;;;;;10.00;8.00;;;;;22.87;51.04;101891.41;5079746;28;46109;-49
2021/08/23 11:00:40;;;;;;;;;8.00;6.50;;;;;22.83;50.89;101885.31;5079922;28;45500;-50
2021/08/23 11:03:07;;;;;;;;;10.25;8.25;;;;;22.83;51.16;101884.44;5080077;27;45455;-49
2021/08/23 11:05:34;;;;;;;;;9.00;9.00;;;;;22.82;51.17;101883.56;5080179;28;45333;-49
2021/08/23 11:08:08;;;;;;;;;7.25;7.25;;;;;22.82;51.25;101880.91;5079744;28;45363;-50
2021/08/23 11:10:36;;;;;;;;;8.00;7.00;;;;;22.81;51.31;101878.28;5083532;27;45243;-50
2021/08/23 11:13:18;;;;;;;;;8.00;7.50;;;;;22.82;51.45;101874.69;5082156;28;45299;-46
2021/08/23 11:15:45;;;;;;;;;11.25;9.00;;;;;22.81;51.36;101886.34;5083322;28;45523;-46
2021/08/23 11:18:13;;;;;;;;;8.00;7.25;;;;;22.79;51.17;101883.75;5083641;28;45298;-47